sensor_id;sensor_type;location;lat;lon;timestamp;P1;durP1;ratioP1;P2;durP2;ratioP2
42066;SDS011;27734;47.028;28.820;2023-06-19T00:01:49;25.23;;;15.67;;
42066;SDS011;27734;47.028;28.820;2023-06-19T00:04:20;25.03;;;15.30;;
42066;SDS011;27734;47.028;28.820;2023-06-19T00:06:52;25.53;;;15.20;;
42066;SDS011;27734;47.028;28.820;2023-06-19T00:09:23;24.37;;;14.33;;
42066;SDS011;27734;47.028;28.820;2023-06-19T00:11:54;25.20;;;14.73;;
42066;SDS011;27734;47.028;28.820;2023-06-19T00:14:26;25.40;;;14.60;;
42066;SDS011;27734;47.028;28.820;2023-06-19T00:16:58;24.00;;;14.30;;
42066;SDS011;27734;47.028;28.820;2023-06-19T00:19:29;24.23;;;14.30;;
42066;SDS011;27734;47.028;28.820;2023-06-19T00:22:04;23.47;;;13.30;;
42066;SDS011;27734;47.028;28.820;2023-06-19T00:24:36;21.07;;;12.50;;
42066;SDS011;27734;47.028;28.820;2023-06-19T00:27:07;20.83;;;11.93;;
42066;SDS011;27734;47.028;28.820;2023-06-19T00:29:38;20.50;;;12.20;;
42066;SDS011;27734;47.028;28.820;2023-06-19T00:32:10;19.53;;;11.43;;
42066;SDS011;27734;47.028;28.820;2023-06-19T00:34:44;19.47;;;11.20;;
42066;SDS011;27734;47.028;28.820;2023-06-19T00:37:15;20.67;;;11.90;;
42066;SDS011;27734;47.028;28.820;2023-06-19T00:39:46;19.20;;;11.47;;
42066;SDS011;27734;47.028;28.820;2023-06-19T00:42:17;19.53;;;10.90;;
42066;SDS011;27734;47.028;28.820;2023-06-19T00:44:49;22.20;;;11.40;;
42066;SDS011;27734;47.028;28.820;2023-06-19T00:47:20;21.17;;;11.93;;
42066;SDS011;27734;47.028;28.820;2023-06-19T00:49:51;19.60;;;11.27;;
42066;SDS011;27734;47.028;28.820;2023-06-19T00:52:23;20.73;;;11.30;;
42066;SDS011;27734;47.028;28.820;2023-06-19T00:54:54;19.27;;;10.30;;
42066;SDS011;27734;47.028;28.820;2023-06-19T00:57:25;17.63;;;9.70;;
42066;SDS011;27734;47.028;28.820;2023-06-19T00:59:57;20.77;;;11.27;;
42066;SDS011;27734;47.028;28.820;2023-06-19T01:02:29;17.73;;;10.23;;
42066;SDS011;27734;47.028;28.820;2023-06-19T01:05:00;19.37;;;10.37;;
42066;SDS011;27734;47.028;28.820;2023-06-19T01:07:33;20.50;;;10.70;;
42066;SDS011;27734;47.028;28.820;2023-06-19T01:10:13;18.30;;;10.10;;
42066;SDS011;27734;47.028;28.820;2023-06-19T01:12:52;18.70;;;10.37;;
42066;SDS011;27734;47.028;28.820;2023-06-19T01:15:29;16.97;;;9.60;;
42066;SDS011;27734;47.028;28.820;2023-06-19T01:18:01;16.80;;;9.40;;
42066;SDS011;27734;47.028;28.820;2023-06-19T01:20:33;18.27;;;9.27;;
42066;SDS011;27734;47.028;28.820;2023-06-19T01:23:08;16.83;;;9.17;;
42066;SDS011;27734;47.028;28.820;2023-06-19T01:25:41;16.30;;;9.20;;
42066;SDS011;27734;47.028;28.820;2023-06-19T01:28:13;18.87;;;9.63;;
42066;SDS011;27734;47.028;28.820;2023-06-19T01:30:44;18.65;;;8.95;;
42066;SDS011;27734;47.028;28.820;2023-06-19T01:33:17;17.30;;;8.40;;
42066;SDS011;27734;47.028;28.820;2023-06-19T01:35:56;17.20;;;8.70;;
42066;SDS011;27734;47.028;28.820;2023-06-19T01:38:29;17.00;;;9.10;;
42066;SDS011;27734;47.028;28.820;2023-06-19T01:41:03;15.70;;;8.60;;
42066;SDS011;27734;47.028;28.820;2023-06-19T01:43:36;17.13;;;9.07;;
42066;SDS011;27734;47.028;28.820;2023-06-19T01:46:08;16.20;;;8.83;;
42066;SDS011;27734;47.028;28.820;2023-06-19T01:48:39;17.35;;;8.75;;
42066;SDS011;27734;47.028;28.820;2023-06-19T01:51:10;17.53;;;9.30;;
42066;SDS011;27734;47.028;28.820;2023-06-19T01:53:42;15.40;;;8.80;;
42066;SDS011;27734;47.028;28.820;2023-06-19T01:56:13;22.37;;;9.53;;
42066;SDS011;27734;47.028;28.820;2023-06-19T01:58:44;18.37;;;9.07;;
42066;SDS011;27734;47.028;28.820;2023-06-19T02:01:16;17.60;;;8.93;;
42066;SDS011;27734;47.028;28.820;2023-06-19T02:03:47;17.50;;;9.03;;
42066;SDS011;27734;47.028;28.820;2023-06-19T02:06:18;17.00;;;9.00;;
42066;SDS011;27734;47.028;28.820;2023-06-19T02:08:50;19.57;;;9.40;;
42066;SDS011;27734;47.028;28.820;2023-06-19T02:11:22;21.47;;;9.47;;
42066;SDS011;27734;47.028;28.820;2023-06-19T02:13:54;17.07;;;9.67;;
42066;SDS011;27734;47.028;28.820;2023-06-19T02:16:26;17.67;;;9.60;;
42066;SDS011;27734;47.028;28.820;2023-06-19T02:18:58;18.50;;;10.00;;
42066;SDS011;27734;47.028;28.820;2023-06-19T02:21:29;19.50;;;10.37;;
42066;SDS011;27734;47.028;28.820;2023-06-19T02:24:00;16.87;;;9.97;;
42066;SDS011;27734;47.028;28.820;2023-06-19T02:26:33;18.90;;;9.97;;
42066;SDS011;27734;47.028;28.820;2023-06-19T02:29:04;17.57;;;10.03;;
42066;SDS011;27734;47.028;28.820;2023-06-19T02:31:35;18.07;;;10.43;;
42066;SDS011;27734;47.028;28.820;2023-06-19T02:34:07;20.25;;;10.40;;
42066;SDS011;27734;47.028;28.820;2023-06-19T02:36:39;19.60;;;10.67;;
42066;SDS011;27734;47.028;28.820;2023-06-19T02:39:10;17.87;;;10.07;;
42066;SDS011;27734;47.028;28.820;2023-06-19T02:41:43;16.97;;;9.63;;
42066;SDS011;27734;47.028;28.820;2023-06-19T02:44:15;17.37;;;9.37;;
42066;SDS011;27734;47.028;28.820;2023-06-19T02:46:46;18.47;;;9.73;;
42066;SDS011;27734;47.028;28.820;2023-06-19T02:49:17;18.50;;;9.67;;
42066;SDS011;27734;47.028;28.820;2023-06-19T02:51:48;18.43;;;9.80;;
42066;SDS011;27734;47.028;28.820;2023-06-19T02:54:20;17.53;;;9.17;;
42066;SDS011;27734;47.028;28.820;2023-06-19T02:56:51;17.93;;;9.63;;
42066;SDS011;27734;47.028;28.820;2023-06-19T02:59:22;20.53;;;9.23;;
42066;SDS011;27734;47.028;28.820;2023-06-19T03:01:53;18.80;;;8.97;;
42066;SDS011;27734;47.028;28.820;2023-06-19T03:04:25;18.43;;;9.37;;
42066;SDS011;27734;47.028;28.820;2023-06-19T03:06:57;18.85;;;9.40;;
42066;SDS011;27734;47.028;28.820;2023-06-19T03:09:31;22.07;;;10.00;;
42066;SDS011;27734;47.028;28.820;2023-06-19T03:12:02;16.63;;;8.70;;
42066;SDS011;27734;47.028;28.820;2023-06-19T03:14:34;19.07;;;9.43;;
42066;SDS011;27734;47.028;28.820;2023-06-19T03:17:06;16.80;;;9.13;;
42066;SDS011;27734;47.028;28.820;2023-06-19T03:19:37;16.47;;;8.40;;
42066;SDS011;27734;47.028;28.820;2023-06-19T03:22:08;17.63;;;8.77;;
42066;SDS011;27734;47.028;28.820;2023-06-19T03:24:40;15.57;;;8.50;;
42066;SDS011;27734;47.028;28.820;2023-06-19T03:27:22;14.87;;;8.60;;
42066;SDS011;27734;47.028;28.820;2023-06-19T03:29:55;17.03;;;8.77;;
42066;SDS011;27734;47.028;28.820;2023-06-19T03:32:34;18.93;;;9.17;;
42066;SDS011;27734;47.028;28.820;2023-06-19T03:35:06;17.53;;;9.13;;
42066;SDS011;27734;47.028;28.820;2023-06-19T03:37:42;14.63;;;8.43;;
42066;SDS011;27734;47.028;28.820;2023-06-19T03:40:13;18.20;;;8.70;;
42066;SDS011;27734;47.028;28.820;2023-06-19T03:42:46;15.80;;;8.57;;
42066;SDS011;27734;47.028;28.820;2023-06-19T03:45:17;18.40;;;9.03;;
42066;SDS011;27734;47.028;28.820;2023-06-19T03:47:48;13.73;;;8.10;;
42066;SDS011;27734;47.028;28.820;2023-06-19T03:50:20;17.90;;;8.27;;
42066;SDS011;27734;47.028;28.820;2023-06-19T03:52:51;15.93;;;8.77;;
42066;SDS011;27734;47.028;28.820;2023-06-19T03:55:22;15.13;;;8.27;;
42066;SDS011;27734;47.028;28.820;2023-06-19T03:57:53;13.83;;;7.87;;
42066;SDS011;27734;47.028;28.820;2023-06-19T04:00:25;11.83;;;7.30;;
42066;SDS011;27734;47.028;28.820;2023-06-19T04:02:56;13.87;;;7.50;;
42066;SDS011;27734;47.028;28.820;2023-06-19T04:05:28;12.43;;;7.50;;
42066;SDS011;27734;47.028;28.820;2023-06-19T04:07:59;13.57;;;7.47;;
42066;SDS011;27734;47.028;28.820;2023-06-19T04:10:31;15.07;;;7.80;;
42066;SDS011;27734;47.028;28.820;2023-06-19T04:13:03;15.13;;;7.53;;
42066;SDS011;27734;47.028;28.820;2023-06-19T04:15:35;13.87;;;7.60;;
42066;SDS011;27734;47.028;28.820;2023-06-19T04:18:06;12.63;;;7.50;;
42066;SDS011;27734;47.028;28.820;2023-06-19T04:20:39;14.13;;;7.40;;
42066;SDS011;27734;47.028;28.820;2023-06-19T04:23:10;14.10;;;7.50;;
42066;SDS011;27734;47.028;28.820;2023-06-19T04:25:42;14.47;;;7.90;;
42066;SDS011;27734;47.028;28.820;2023-06-19T04:28:13;13.10;;;7.37;;
42066;SDS011;27734;47.028;28.820;2023-06-19T04:30:44;13.23;;;6.80;;
42066;SDS011;27734;47.028;28.820;2023-06-19T04:33:15;13.03;;;7.23;;
42066;SDS011;27734;47.028;28.820;2023-06-19T04:35:49;11.70;;;7.03;;
42066;SDS011;27734;47.028;28.820;2023-06-19T04:38:20;10.85;;;7.10;;
42066;SDS011;27734;47.028;28.820;2023-06-19T04:40:52;12.25;;;6.95;;
42066;SDS011;27734;47.028;28.820;2023-06-19T04:43:25;13.25;;;7.60;;
42066;SDS011;27734;47.028;28.820;2023-06-19T04:45:56;14.67;;;7.37;;
42066;SDS011;27734;47.028;28.820;2023-06-19T04:48:28;11.93;;;6.37;;
42066;SDS011;27734;47.028;28.820;2023-06-19T04:50:59;16.17;;;7.70;;
42066;SDS011;27734;47.028;28.820;2023-06-19T04:53:30;13.17;;;6.83;;
42066;SDS011;27734;47.028;28.820;2023-06-19T04:56:02;14.50;;;7.77;;
42066;SDS011;27734;47.028;28.820;2023-06-19T04:58:33;14.73;;;7.70;;
42066;SDS011;27734;47.028;28.820;2023-06-19T05:01:06;16.57;;;7.62;;
42066;SDS011;27734;47.028;28.820;2023-06-19T05:03:38;14.63;;;7.33;;
42066;SDS011;27734;47.028;28.820;2023-06-19T05:06:10;15.30;;;7.43;;
42066;SDS011;27734;47.028;28.820;2023-06-19T05:08:42;17.15;;;7.75;;
42066;SDS011;27734;47.028;28.820;2023-06-19T05:11:13;14.90;;;7.67;;
42066;SDS011;27734;47.028;28.820;2023-06-19T05:13:45;18.67;;;8.43;;
42066;SDS011;27734;47.028;28.820;2023-06-19T05:16:16;16.10;;;8.10;;
42066;SDS011;27734;47.028;28.820;2023-06-19T05:18:48;16.63;;;7.97;;
42066;SDS011;27734;47.028;28.820;2023-06-19T05:21:19;16.47;;;8.20;;
42066;SDS011;27734;47.028;28.820;2023-06-19T05:23:50;14.77;;;8.23;;
42066;SDS011;27734;47.028;28.820;2023-06-19T05:26:22;17.37;;;8.03;;
42066;SDS011;27734;47.028;28.820;2023-06-19T05:28:54;15.40;;;8.30;;
42066;SDS011;27734;47.028;28.820;2023-06-19T05:31:25;17.47;;;8.37;;
42066;SDS011;27734;47.028;28.820;2023-06-19T05:33:56;20.73;;;9.17;;
42066;SDS011;27734;47.028;28.820;2023-06-19T05:36:28;15.00;;;8.37;;
42066;SDS011;27734;47.028;28.820;2023-06-19T05:38:59;18.37;;;9.17;;
42066;SDS011;27734;47.028;28.820;2023-06-19T05:41:30;19.10;;;8.60;;
42066;SDS011;27734;47.028;28.820;2023-06-19T05:44:04;16.80;;;8.90;;
42066;SDS011;27734;47.028;28.820;2023-06-19T05:46:35;16.73;;;8.87;;
42066;SDS011;27734;47.028;28.820;2023-06-19T05:49:07;16.95;;;9.40;;
42066;SDS011;27734;47.028;28.820;2023-06-19T05:51:41;17.20;;;8.83;;
42066;SDS011;27734;47.028;28.820;2023-06-19T05:54:14;15.77;;;8.17;;
42066;SDS011;27734;47.028;28.820;2023-06-19T05:56:45;16.47;;;8.70;;
42066;SDS011;27734;47.028;28.820;2023-06-19T05:59:18;17.20;;;8.80;;
42066;SDS011;27734;47.028;28.820;2023-06-19T06:01:49;14.87;;;8.50;;
42066;SDS011;27734;47.028;28.820;2023-06-19T06:04:21;16.37;;;8.60;;
42066;SDS011;27734;47.028;28.820;2023-06-19T06:06:52;17.80;;;8.80;;
42066;SDS011;27734;47.028;28.820;2023-06-19T06:09:24;18.43;;;8.73;;
42066;SDS011;27734;47.028;28.820;2023-06-19T06:11:55;14.73;;;8.27;;
42066;SDS011;27734;47.028;28.820;2023-06-19T06:14:27;15.30;;;8.57;;
42066;SDS011;27734;47.028;28.820;2023-06-19T06:17:00;19.67;;;8.67;;
42066;SDS011;27734;47.028;28.820;2023-06-19T06:19:33;15.23;;;8.03;;
42066;SDS011;27734;47.028;28.820;2023-06-19T06:22:09;15.83;;;8.20;;
42066;SDS011;27734;47.028;28.820;2023-06-19T06:24:45;14.40;;;8.23;;
42066;SDS011;27734;47.028;28.820;2023-06-19T06:27:22;15.73;;;8.70;;
42066;SDS011;27734;47.028;28.820;2023-06-19T06:29:53;15.20;;;7.95;;
42066;SDS011;27734;47.028;28.820;2023-06-19T06:32:34;13.70;;;8.00;;
42066;SDS011;27734;47.028;28.820;2023-06-19T06:35:07;19.50;;;8.83;;
42066;SDS011;27734;47.028;28.820;2023-06-19T06:37:39;16.83;;;8.77;;
42066;SDS011;27734;47.028;28.820;2023-06-19T06:40:12;15.97;;;8.10;;
42066;SDS011;27734;47.028;28.820;2023-06-19T06:42:44;17.17;;;8.73;;
42066;SDS011;27734;47.028;28.820;2023-06-19T06:45:18;16.00;;;7.73;;
42066;SDS011;27734;47.028;28.820;2023-06-19T06:47:49;13.17;;;7.50;;
42066;SDS011;27734;47.028;28.820;2023-06-19T06:50:21;16.13;;;8.43;;
42066;SDS011;27734;47.028;28.820;2023-06-19T06:52:52;15.03;;;8.30;;
42066;SDS011;27734;47.028;28.820;2023-06-19T06:55:28;15.33;;;8.37;;
42066;SDS011;27734;47.028;28.820;2023-06-19T06:58:03;16.73;;;8.93;;
42066;SDS011;27734;47.028;28.820;2023-06-19T07:00:34;13.97;;;8.70;;
42066;SDS011;27734;47.028;28.820;2023-06-19T07:03:05;15.63;;;8.60;;
42066;SDS011;27734;47.028;28.820;2023-06-19T07:05:38;20.63;;;9.73;;
42066;SDS011;27734;47.028;28.820;2023-06-19T07:08:09;18.17;;;9.20;;
42066;SDS011;27734;47.028;28.820;2023-06-19T07:10:43;16.57;;;9.05;;
42066;SDS011;27734;47.028;28.820;2023-06-19T07:13:15;15.40;;;8.90;;
42066;SDS011;27734;47.028;28.820;2023-06-19T07:15:46;16.93;;;9.07;;
42066;SDS011;27734;47.028;28.820;2023-06-19T07:18:18;17.30;;;8.70;;
42066;SDS011;27734;47.028;28.820;2023-06-19T07:20:51;18.10;;;8.73;;
42066;SDS011;27734;47.028;28.820;2023-06-19T07:23:27;16.60;;;8.93;;
42066;SDS011;27734;47.028;28.820;2023-06-19T07:26:00;15.73;;;8.27;;
42066;SDS011;27734;47.028;28.820;2023-06-19T07:28:31;15.10;;;8.03;;
42066;SDS011;27734;47.028;28.820;2023-06-19T07:31:04;17.07;;;7.87;;
42066;SDS011;27734;47.028;28.820;2023-06-19T07:33:36;16.03;;;8.13;;
42066;SDS011;27734;47.028;28.820;2023-06-19T07:36:08;13.13;;;7.47;;
42066;SDS011;27734;47.028;28.820;2023-06-19T07:38:42;17.43;;;7.53;;
42066;SDS011;27734;47.028;28.820;2023-06-19T07:41:15;13.70;;;7.30;;
42066;SDS011;27734;47.028;28.820;2023-06-19T07:43:47;12.27;;;7.17;;
42066;SDS011;27734;47.028;28.820;2023-06-19T07:46:32;14.43;;;7.40;;
42066;SDS011;27734;47.028;28.820;2023-06-19T07:49:06;13.53;;;6.87;;
42066;SDS011;27734;47.028;28.820;2023-06-19T07:51:45;15.90;;;7.00;;
42066;SDS011;27734;47.028;28.820;2023-06-19T07:54:25;10.47;;;6.80;;
42066;SDS011;27734;47.028;28.820;2023-06-19T07:56:57;12.70;;;7.20;;
42066;SDS011;27734;47.028;28.820;2023-06-19T07:59:31;12.17;;;7.30;;
42066;SDS011;27734;47.028;28.820;2023-06-19T08:02:04;14.07;;;7.60;;
42066;SDS011;27734;47.028;28.820;2023-06-19T08:04:35;15.20;;;7.40;;
42066;SDS011;27734;47.028;28.820;2023-06-19T08:07:07;14.25;;;7.50;;
42066;SDS011;27734;47.028;28.820;2023-06-19T08:09:38;12.67;;;7.07;;
42066;SDS011;27734;47.028;28.820;2023-06-19T08:12:10;14.27;;;6.87;;
42066;SDS011;27734;47.028;28.820;2023-06-19T08:17:13;12.23;;;6.93;;
42066;SDS011;27734;47.028;28.820;2023-06-19T08:19:45;10.77;;;6.83;;
42066;SDS011;27734;47.028;28.820;2023-06-19T08:22:16;12.13;;;6.30;;
42066;SDS011;27734;47.028;28.820;2023-06-19T08:24:53;11.73;;;6.87;;
42066;SDS011;27734;47.028;28.820;2023-06-19T08:27:25;11.97;;;7.07;;
42066;SDS011;27734;47.028;28.820;2023-06-19T08:29:59;16.13;;;6.93;;
42066;SDS011;27734;47.028;28.820;2023-06-19T08:32:31;14.17;;;7.30;;
42066;SDS011;27734;47.028;28.820;2023-06-19T08:35:05;15.83;;;6.63;;
42066;SDS011;27734;47.028;28.820;2023-06-19T08:37:37;12.77;;;6.87;;
42066;SDS011;27734;47.028;28.820;2023-06-19T08:40:11;10.37;;;6.73;;
42066;SDS011;27734;47.028;28.820;2023-06-19T08:42:43;12.87;;;7.23;;
42066;SDS011;27734;47.028;28.820;2023-06-19T08:45:14;17.50;;;7.10;;
42066;SDS011;27734;47.028;28.820;2023-06-19T08:47:49;11.47;;;6.77;;
42066;SDS011;27734;47.028;28.820;2023-06-19T08:50:27;15.43;;;7.13;;
42066;SDS011;27734;47.028;28.820;2023-06-19T08:52:59;13.33;;;6.60;;
42066;SDS011;27734;47.028;28.820;2023-06-19T08:55:30;12.43;;;7.03;;
42066;SDS011;27734;47.028;28.820;2023-06-19T08:58:02;11.30;;;6.50;;
42066;SDS011;27734;47.028;28.820;2023-06-19T09:00:34;11.33;;;6.23;;
42066;SDS011;27734;47.028;28.820;2023-06-19T09:03:05;13.05;;;6.95;;
42066;SDS011;27734;47.028;28.820;2023-06-19T09:05:42;14.30;;;6.70;;
42066;SDS011;27734;47.028;28.820;2023-06-19T09:08:18;13.90;;;6.50;;
42066;SDS011;27734;47.028;28.820;2023-06-19T09:10:58;12.93;;;6.83;;
42066;SDS011;27734;47.028;28.820;2023-06-19T09:13:31;13.17;;;7.00;;
42066;SDS011;27734;47.028;28.820;2023-06-19T09:16:07;14.17;;;7.20;;
42066;SDS011;27734;47.028;28.820;2023-06-19T09:18:46;11.70;;;6.90;;
42066;SDS011;27734;47.028;28.820;2023-06-19T09:21:20;12.50;;;6.77;;
42066;SDS011;27734;47.028;28.820;2023-06-19T09:24:03;13.13;;;6.87;;
42066;SDS011;27734;47.028;28.820;2023-06-19T09:26:41;12.63;;;6.60;;
42066;SDS011;27734;47.028;28.820;2023-06-19T09:29:21;13.10;;;6.60;;
42066;SDS011;27734;47.028;28.820;2023-06-19T09:31:59;15.13;;;6.77;;
42066;SDS011;27734;47.028;28.820;2023-06-19T09:34:37;11.75;;;6.75;;
42066;SDS011;27734;47.028;28.820;2023-06-19T09:37:10;11.73;;;6.70;;
42066;SDS011;27734;47.028;28.820;2023-06-19T09:39:43;12.57;;;6.20;;
42066;SDS011;27734;47.028;28.820;2023-06-19T09:42:26;11.87;;;6.37;;
42066;SDS011;27734;47.028;28.820;2023-06-19T09:45:01;14.53;;;6.90;;
42066;SDS011;27734;47.028;28.820;2023-06-19T09:47:37;11.50;;;6.27;;
42066;SDS011;27734;47.028;28.820;2023-06-19T09:50:15;13.30;;;6.73;;
42066;SDS011;27734;47.028;28.820;2023-06-19T09:52:50;15.03;;;7.00;;
42066;SDS011;27734;47.028;28.820;2023-06-19T09:55:29;13.40;;;6.37;;
42066;SDS011;27734;47.028;28.820;2023-06-19T09:58:03;9.57;;;6.30;;
42066;SDS011;27734;47.028;28.820;2023-06-19T10:00:35;11.80;;;6.60;;
42066;SDS011;27734;47.028;28.820;2023-06-19T10:03:12;14.33;;;6.97;;
42066;SDS011;27734;47.028;28.820;2023-06-19T10:05:56;14.10;;;7.40;;
42066;SDS011;27734;47.028;28.820;2023-06-19T10:08:43;15.23;;;7.30;;
42066;SDS011;27734;47.028;28.820;2023-06-19T10:11:16;13.35;;;7.30;;
42066;SDS011;27734;47.028;28.820;2023-06-19T10:13:53;12.23;;;7.20;;
42066;SDS011;27734;47.028;28.820;2023-06-19T10:16:35;14.80;;;7.10;;
42066;SDS011;27734;47.028;28.820;2023-06-19T10:19:12;14.50;;;6.90;;
42066;SDS011;27734;47.028;28.820;2023-06-19T10:21:46;15.47;;;7.57;;
42066;SDS011;27734;47.028;28.820;2023-06-19T10:24:20;14.07;;;7.20;;
42066;SDS011;27734;47.028;28.820;2023-06-19T10:27:00;16.30;;;7.28;;
42066;SDS011;27734;47.028;28.820;2023-06-19T10:29:39;13.10;;;7.33;;
42066;SDS011;27734;47.028;28.820;2023-06-19T10:32:11;13.87;;;7.40;;
42066;SDS011;27734;47.028;28.820;2023-06-19T10:34:44;15.80;;;8.40;;
42066;SDS011;27734;47.028;28.820;2023-06-19T10:37:17;15.10;;;7.87;;
42066;SDS011;27734;47.028;28.820;2023-06-19T10:40:05;10.93;;;6.80;;
42066;SDS011;27734;47.028;28.820;2023-06-19T10:42:39;14.03;;;7.43;;
42066;SDS011;27734;47.028;28.820;2023-06-19T10:45:14;15.17;;;7.77;;
42066;SDS011;27734;47.028;28.820;2023-06-19T10:47:49;14.40;;;8.13;;
42066;SDS011;27734;47.028;28.820;2023-06-19T10:53:27;12.83;;;7.63;;
42066;SDS011;27734;47.028;28.820;2023-06-19T10:56:03;15.03;;;7.90;;
42066;SDS011;27734;47.028;28.820;2023-06-19T10:58:44;12.03;;;7.37;;
42066;SDS011;27734;47.028;28.820;2023-06-19T11:01:16;13.77;;;7.40;;
42066;SDS011;27734;47.028;28.820;2023-06-19T11:03:56;12.20;;;7.55;;
42066;SDS011;27734;47.028;28.820;2023-06-19T11:06:31;16.63;;;8.07;;
42066;SDS011;27734;47.028;28.820;2023-06-19T11:11:44;12.87;;;7.80;;
42066;SDS011;27734;47.028;28.820;2023-06-19T11:14:16;14.13;;;7.80;;
42066;SDS011;27734;47.028;28.820;2023-06-19T11:16:48;14.97;;;7.97;;
42066;SDS011;27734;47.028;28.820;2023-06-19T11:19:21;13.23;;;7.70;;
42066;SDS011;27734;47.028;28.820;2023-06-19T11:22:01;14.67;;;8.47;;
42066;SDS011;27734;47.028;28.820;2023-06-19T11:24:35;14.17;;;7.80;;
42066;SDS011;27734;47.028;28.820;2023-06-19T11:27:18;13.90;;;7.63;;
42066;SDS011;27734;47.028;28.820;2023-06-19T11:29:56;12.83;;;7.40;;
42066;SDS011;27734;47.028;28.820;2023-06-19T11:32:34;12.33;;;7.17;;
42066;SDS011;27734;47.028;28.820;2023-06-19T11:35:20;13.87;;;7.40;;
42066;SDS011;27734;47.028;28.820;2023-06-19T11:37:52;14.83;;;8.27;;
42066;SDS011;27734;47.028;28.820;2023-06-19T11:40:24;14.00;;;8.40;;
42066;SDS011;27734;47.028;28.820;2023-06-19T11:43:05;15.53;;;8.63;;
42066;SDS011;27734;47.028;28.820;2023-06-19T11:45:47;13.53;;;8.03;;
42066;SDS011;27734;47.028;28.820;2023-06-19T11:48:25;14.67;;;7.93;;
42066;SDS011;27734;47.028;28.820;2023-06-19T11:50:58;17.63;;;8.93;;
42066;SDS011;27734;47.028;28.820;2023-06-19T11:53:34;14.27;;;8.30;;
42066;SDS011;27734;47.028;28.820;2023-06-19T11:56:06;14.30;;;8.23;;
42066;SDS011;27734;47.028;28.820;2023-06-19T11:58:42;15.73;;;8.70;;
42066;SDS011;27734;47.028;28.820;2023-06-19T12:01:15;16.57;;;8.55;;
42066;SDS011;27734;47.028;28.820;2023-06-19T12:03:50;13.67;;;8.10;;
42066;SDS011;27734;47.028;28.820;2023-06-19T12:06:31;15.97;;;8.47;;
42066;SDS011;27734;47.028;28.820;2023-06-19T12:09:06;14.67;;;8.20;;
42066;SDS011;27734;47.028;28.820;2023-06-19T12:11:41;15.67;;;8.93;;
42066;SDS011;27734;47.028;28.820;2023-06-19T12:14:17;15.80;;;8.50;;
42066;SDS011;27734;47.028;28.820;2023-06-19T12:16:53;18.70;;;9.10;;
42066;SDS011;27734;47.028;28.820;2023-06-19T12:19:24;18.73;;;7.80;;
42066;SDS011;27734;47.028;28.820;2023-06-19T12:21:57;13.27;;;8.03;;
42066;SDS011;27734;47.028;28.820;2023-06-19T12:24:37;13.10;;;7.30;;
42066;SDS011;27734;47.028;28.820;2023-06-19T12:27:08;13.17;;;7.67;;
42066;SDS011;27734;47.028;28.820;2023-06-19T12:29:40;12.80;;;7.87;;
42066;SDS011;27734;47.028;28.820;2023-06-19T12:32:12;13.57;;;7.97;;
42066;SDS011;27734;47.028;28.820;2023-06-19T12:34:46;13.80;;;7.63;;
42066;SDS011;27734;47.028;28.820;2023-06-19T12:37:17;13.23;;;7.20;;
42066;SDS011;27734;47.028;28.820;2023-06-19T12:39:50;13.80;;;7.23;;
42066;SDS011;27734;47.028;28.820;2023-06-19T12:42:21;10.07;;;6.63;;
42066;SDS011;27734;47.028;28.820;2023-06-19T12:44:54;12.47;;;6.90;;
42066;SDS011;27734;47.028;28.820;2023-06-19T12:47:29;11.73;;;7.07;;
42066;SDS011;27734;47.028;28.820;2023-06-19T12:50:01;12.13;;;6.50;;
42066;SDS011;27734;47.028;28.820;2023-06-19T12:52:34;10.70;;;6.40;;
42066;SDS011;27734;47.028;28.820;2023-06-19T12:55:08;11.97;;;6.17;;
42066;SDS011;27734;47.028;28.820;2023-06-19T12:57:42;12.73;;;6.53;;
42066;SDS011;27734;47.028;28.820;2023-06-19T13:00:14;16.80;;;6.80;;
42066;SDS011;27734;47.028;28.820;2023-06-19T13:02:47;10.07;;;6.40;;
42066;SDS011;27734;47.028;28.820;2023-06-19T13:05:20;13.83;;;6.33;;
42066;SDS011;27734;47.028;28.820;2023-06-19T13:07:57;13.83;;;6.57;;
42066;SDS011;27734;47.028;28.820;2023-06-19T13:10:34;12.07;;;6.40;;
42066;SDS011;27734;47.028;28.820;2023-06-19T13:13:06;12.63;;;6.07;;
42066;SDS011;27734;47.028;28.820;2023-06-19T13:15:40;10.30;;;6.67;;
42066;SDS011;27734;47.028;28.820;2023-06-19T13:18:11;11.57;;;6.10;;
42066;SDS011;27734;47.028;28.820;2023-06-19T13:20:48;13.73;;;6.57;;
42066;SDS011;27734;47.028;28.820;2023-06-19T13:23:20;12.27;;;6.00;;
42066;SDS011;27734;47.028;28.820;2023-06-19T13:25:53;16.20;;;6.80;;
42066;SDS011;27734;47.028;28.820;2023-06-19T13:28:25;12.15;;;6.05;;
42066;SDS011;27734;47.028;28.820;2023-06-19T13:31:01;12.97;;;6.30;;
42066;SDS011;27734;47.028;28.820;2023-06-19T13:33:37;12.80;;;5.97;;
42066;SDS011;27734;47.028;28.820;2023-06-19T13:36:13;9.67;;;6.00;;
42066;SDS011;27734;47.028;28.820;2023-06-19T13:38:48;10.20;;;6.00;;
42066;SDS011;27734;47.028;28.820;2023-06-19T13:41:24;10.47;;;5.87;;
42066;SDS011;27734;47.028;28.820;2023-06-19T13:46:48;12.07;;;6.10;;
42066;SDS011;27734;47.028;28.820;2023-06-19T13:49:26;12.40;;;6.12;;
42066;SDS011;27734;47.028;28.820;2023-06-19T13:52:05;10.57;;;6.20;;
42066;SDS011;27734;47.028;28.820;2023-06-19T13:54:40;10.90;;;6.07;;
42066;SDS011;27734;47.028;28.820;2023-06-19T13:57:17;9.70;;;6.00;;
42066;SDS011;27734;47.028;28.820;2023-06-19T13:59:51;10.57;;;5.90;;
42066;SDS011;27734;47.028;28.820;2023-06-19T14:02:22;12.17;;;6.70;;
42066;SDS011;27734;47.028;28.820;2023-06-19T14:04:53;11.73;;;6.43;;
42066;SDS011;27734;47.028;28.820;2023-06-19T14:07:25;13.70;;;6.47;;
42066;SDS011;27734;47.028;28.820;2023-06-19T14:09:57;12.87;;;6.47;;
42066;SDS011;27734;47.028;28.820;2023-06-19T14:12:29;12.57;;;6.33;;
42066;SDS011;27734;47.028;28.820;2023-06-19T14:15:00;9.60;;;6.27;;
42066;SDS011;27734;47.028;28.820;2023-06-19T14:17:32;10.27;;;6.20;;
42066;SDS011;27734;47.028;28.820;2023-06-19T14:20:04;11.83;;;5.90;;
42066;SDS011;27734;47.028;28.820;2023-06-19T14:22:37;11.93;;;6.20;;
42066;SDS011;27734;47.028;28.820;2023-06-19T14:25:09;11.93;;;6.67;;
42066;SDS011;27734;47.028;28.820;2023-06-19T14:27:41;10.57;;;6.40;;
42066;SDS011;27734;47.028;28.820;2023-06-19T14:30:13;14.60;;;6.33;;
42066;SDS011;27734;47.028;28.820;2023-06-19T14:32:44;10.87;;;6.00;;
42066;SDS011;27734;47.028;28.820;2023-06-19T14:35:17;9.77;;;6.17;;
42066;SDS011;27734;47.028;28.820;2023-06-19T14:37:49;13.62;;;6.10;;
42066;SDS011;27734;47.028;28.820;2023-06-19T14:40:22;11.70;;;6.03;;
42066;SDS011;27734;47.028;28.820;2023-06-19T14:42:53;11.63;;;6.20;;
42066;SDS011;27734;47.028;28.820;2023-06-19T14:45:24;11.00;;;5.70;;
42066;SDS011;27734;47.028;28.820;2023-06-19T14:47:55;12.33;;;6.00;;
42066;SDS011;27734;47.028;28.820;2023-06-19T14:50:27;10.63;;;5.70;;
42066;SDS011;27734;47.028;28.820;2023-06-19T14:52:58;11.45;;;5.90;;
42066;SDS011;27734;47.028;28.820;2023-06-19T14:55:30;9.00;;;5.80;;
42066;SDS011;27734;47.028;28.820;2023-06-19T14:58:02;9.27;;;5.90;;
42066;SDS011;27734;47.028;28.820;2023-06-19T15:00:40;10.63;;;6.17;;
42066;SDS011;27734;47.028;28.820;2023-06-19T15:03:11;10.43;;;5.63;;
42066;SDS011;27734;47.028;28.820;2023-06-19T15:05:43;11.30;;;5.73;;
42066;SDS011;27734;47.028;28.820;2023-06-19T15:08:14;8.80;;;5.87;;